createdAt,value
2023-05-19T00:01:37.825Z,98.31
2023-05-19T00:04:05.186Z,98.22
2023-05-19T00:06:32.767Z,98.23
2023-05-19T00:09:09.859Z,98.08
2023-05-19T00:11:39.121Z,98.17
2023-05-19T00:14:09.157Z,98.24
2023-05-19T00:16:37.602Z,98.53
2023-05-19T00:19:09.796Z,98.59
2023-05-19T00:21:38.589Z,98.66
2023-05-19T00:24:06.677Z,98.14
2023-05-19T00:26:33.884Z,98.15
2023-05-19T00:29:00.937Z,98.25
2023-05-19T00:31:28.722Z,98.51
2023-05-19T00:33:55.829Z,98.78
2023-05-19T00:36:24.512Z,98.37
2023-05-19T00:38:51.570Z,98.51
2023-05-19T00:41:18.626Z,98.63
2023-05-19T00:43:45.574Z,98.40
2023-05-19T00:46:12.794Z,98.53
2023-05-19T00:48:39.932Z,98.63
2023-05-19T00:51:07.020Z,98.76
2023-05-19T00:53:35.062Z,98.82
2023-05-19T00:56:03.408Z,98.89
2023-05-19T00:58:32.223Z,98.94
2023-05-19T01:01:04.997Z,99.17
2023-05-19T01:03:35.826Z,99.13
2023-05-19T01:06:04.730Z,99.37
2023-05-19T01:08:36.768Z,99.34
2023-05-19T01:11:05.079Z,99.45
2023-05-19T01:13:33.105Z,99.51
2023-05-19T01:16:23.353Z,99.67
2023-05-19T01:19:16.678Z,99.96
2023-05-19T01:22:22.547Z,100.00
2023-05-19T01:24:54.472Z,99.96
2023-05-19T01:28:19.929Z,99.98
2023-05-19T01:30:52.454Z,100.00
2023-05-19T01:33:22.093Z,100.00
2023-05-19T01:35:50.683Z,100.00
2023-05-19T01:38:20.078Z,100.00
2023-05-19T01:40:49.178Z,100.00
2023-05-19T01:43:23.699Z,100.00
2023-05-19T01:45:51.945Z,100.00
2023-05-19T01:48:19.385Z,100.00
2023-05-19T01:50:46.724Z,100.00
2023-05-19T01:53:13.994Z,100.00
2023-05-19T01:55:49.267Z,100.00
2023-05-19T01:58:40.072Z,100.00
2023-05-19T02:01:32.365Z,100.00
2023-05-19T02:04:31.015Z,100.00
2023-05-19T02:07:03.319Z,100.00
2023-05-19T02:10:03.641Z,100.00
2023-05-19T02:12:40.341Z,100.00
2023-05-19T02:15:07.692Z,100.00
2023-05-19T02:17:38.473Z,100.00
2023-05-19T02:20:06.453Z,100.00
2023-05-19T02:22:33.573Z,100.00
2023-05-19T02:25:00.689Z,100.00
2023-05-19T02:27:27.765Z,100.00
2023-05-19T02:29:54.976Z,100.00
2023-05-19T02:32:22.161Z,100.00
2023-05-19T02:34:49.165Z,100.00
2023-05-19T02:37:18.010Z,100.00
2023-05-19T02:39:44.994Z,100.00
2023-05-19T02:42:14.294Z,100.00
2023-05-19T02:44:41.286Z,100.00
2023-05-19T02:47:08.352Z,100.00
2023-05-19T02:49:35.619Z,100.00
2023-05-19T02:52:03.773Z,100.00
2023-05-19T02:54:31.854Z,100.00
2023-05-19T02:56:59.373Z,100.00
2023-05-19T02:59:26.550Z,100.00
2023-05-19T03:02:01.252Z,100.00
2023-05-19T03:04:29.540Z,100.00
2023-05-19T03:06:59.806Z,100.00
2023-05-19T03:09:26.865Z,100.00
2023-05-19T03:11:53.924Z,100.00
2023-05-19T03:14:23.425Z,100.00
2023-05-19T03:16:51.037Z,100.00
2023-05-19T03:19:18.352Z,100.00
2023-05-19T03:21:46.023Z,100.00
2023-05-19T03:24:13.479Z,100.00
2023-05-19T03:26:41.729Z,100.00
2023-05-19T03:29:08.685Z,100.00
2023-05-19T03:31:35.860Z,100.00
2023-05-19T03:34:03.068Z,100.00
2023-05-19T03:36:38.980Z,100.00
2023-05-19T03:39:06.506Z,100.00
2023-05-19T03:41:33.498Z,100.00
2023-05-19T03:44:01.029Z,100.00
2023-05-19T03:46:28.276Z,100.00
2023-05-19T03:48:55.755Z,100.00
2023-05-19T03:51:22.916Z,100.00
2023-05-19T03:53:49.966Z,100.00
2023-05-19T03:56:17.888Z,100.00
2023-05-19T03:58:46.607Z,100.00
2023-05-19T04:01:13.623Z,100.00
2023-05-19T04:03:41.216Z,100.00
2023-05-19T04:06:08.538Z,100.00
2023-05-19T04:08:35.837Z,100.00
2023-05-19T04:11:02.907Z,100.00
2023-05-19T04:13:32.312Z,100.00
2023-05-19T04:15:59.693Z,100.00
2023-05-19T04:18:28.293Z,100.00
2023-05-19T04:20:56.244Z,100.00
2023-05-19T04:23:23.288Z,100.00
2023-05-19T04:25:50.954Z,100.00
2023-05-19T04:28:18.022Z,100.00
2023-05-19T04:30:46.246Z,100.00
2023-05-19T04:33:13.350Z,100.00
2023-05-19T04:35:40.657Z,100.00
2023-05-19T04:38:09.584Z,100.00
2023-05-19T04:40:36.771Z,100.00
2023-05-19T04:43:03.873Z,100.00
2023-05-19T04:45:32.678Z,100.00
2023-05-19T04:48:00.021Z,100.00
2023-05-19T04:50:29.101Z,100.00
2023-05-19T04:52:58.673Z,100.00
2023-05-19T04:55:25.764Z,100.00
2023-05-19T04:57:52.878Z,100.00
2023-05-19T05:00:21.208Z,100.00
2023-05-19T05:02:49.753Z,100.00
2023-05-19T05:05:17.593Z,100.00
2023-05-19T05:07:45.701Z,100.00
2023-05-19T05:10:13.004Z,100.00
2023-05-19T05:12:41.138Z,100.00
2023-05-19T05:19:15.105Z,100.00
2023-05-19T05:38:04.267Z,100.00
2023-05-19T05:40:32.006Z,100.00
2023-05-19T05:42:59.671Z,100.00
2023-05-19T05:45:26.775Z,100.00
2023-05-19T06:03:53.705Z,100.00
2023-05-19T06:14:32.177Z,100.00
2023-05-19T06:17:50.079Z,100.00
2023-05-19T06:36:48.468Z,100.00
2023-05-19T07:29:20.218Z,100.00
2023-05-19T07:31:47.896Z,100.00
2023-05-19T07:34:15.170Z,100.00
2023-05-19T07:36:42.454Z,100.00
2023-05-19T07:39:10.468Z,100.00
2023-05-19T07:41:38.141Z,100.00
2023-05-19T07:44:07.436Z,100.00
2023-05-19T07:46:35.317Z,100.00
2023-05-19T07:49:05.544Z,100.00
2023-05-19T07:51:32.861Z,100.00
2023-05-19T07:53:59.995Z,100.00
2023-05-19T07:56:27.344Z,100.00
2023-05-19T07:58:55.483Z,100.00
2023-05-19T08:01:22.728Z,100.00
2023-05-19T08:03:50.310Z,100.00
2023-05-19T08:06:20.161Z,100.00
2023-05-19T08:08:48.313Z,100.00
2023-05-19T08:11:15.581Z,100.00
2023-05-19T08:13:48.330Z,100.00
2023-05-19T08:16:18.686Z,100.00
2023-05-19T08:18:46.047Z,100.00
2023-05-19T08:21:13.360Z,100.00
2023-05-19T08:23:40.549Z,100.00
2023-05-19T08:26:09.128Z,100.00
2023-05-19T08:28:36.256Z,100.00
2023-05-19T08:31:03.418Z,100.00
2023-05-19T08:33:30.651Z,100.00
2023-05-19T08:35:57.839Z,100.00
2023-05-19T08:38:26.303Z,100.00
2023-05-19T08:40:53.686Z,100.00
2023-05-19T08:43:21.261Z,100.00
2023-05-19T08:45:48.679Z,100.00
2023-05-19T08:48:18.936Z,100.00
2023-05-19T08:50:57.367Z,100.00
2023-05-19T08:53:34.383Z,100.00
2023-05-19T08:56:11.169Z,100.00
2023-05-19T08:58:45.315Z,100.00
2023-05-19T09:01:16.447Z,100.00
2023-05-19T09:03:45.786Z,100.00
2023-05-19T09:06:13.810Z,100.00
2023-05-19T09:08:42.024Z,100.00
2023-05-19T09:11:10.395Z,100.00
2023-05-19T09:13:38.252Z,100.00
2023-05-19T09:16:06.215Z,100.00
2023-05-19T09:18:33.817Z,100.00
2023-05-19T09:21:04.492Z,100.00
2023-05-19T09:23:36.000Z,100.00
2023-05-19T09:26:07.078Z,100.00
2023-05-19T09:28:36.055Z,100.00
2023-05-19T09:31:08.856Z,100.00
2023-05-19T09:33:39.380Z,100.00
2023-05-19T09:36:08.189Z,100.00
2023-05-19T09:38:36.728Z,100.00
2023-05-19T09:41:05.914Z,100.00
2023-05-19T09:43:34.518Z,100.00
2023-05-19T09:46:06.984Z,100.00
2023-05-19T09:48:35.899Z,100.00
2023-05-19T09:51:10.556Z,100.00
2023-05-19T09:53:38.544Z,100.00
2023-05-19T09:56:08.260Z,100.00
2023-05-19T09:58:36.016Z,100.00
2023-05-19T10:01:04.090Z,100.00
2023-05-19T10:03:34.516Z,100.00
2023-05-19T10:06:03.775Z,100.00
2023-05-19T10:08:31.921Z,100.00
2023-05-19T10:10:59.882Z,100.00
2023-05-19T10:13:28.931Z,100.00
2023-05-19T10:15:59.742Z,100.00
2023-05-19T10:18:29.043Z,100.00
2023-05-19T10:20:57.405Z,100.00
2023-05-19T10:23:25.113Z,100.00
2023-05-19T10:25:57.485Z,100.00
2023-05-19T10:28:30.776Z,100.00
2023-05-19T10:31:01.506Z,100.00
2023-05-19T10:33:55.081Z,100.00
2023-05-19T10:36:37.707Z,100.00
2023-05-19T10:39:12.930Z,100.00
2023-05-19T10:41:49.331Z,100.00
2023-05-19T10:44:32.455Z,100.00
2023-05-19T10:47:00.137Z,100.00
2023-05-19T10:49:28.054Z,100.00
2023-05-19T10:51:58.834Z,100.00
2023-05-19T10:54:48.776Z,100.00
2023-05-19T10:57:18.210Z,100.00
2023-05-19T10:59:46.179Z,99.40
2023-05-19T11:02:44.282Z,98.72
2023-05-19T11:05:16.491Z,99.62
2023-05-19T11:08:07.674Z,100.00
2023-05-19T11:10:46.549Z,99.99
2023-05-19T11:13:22.747Z,99.88
2023-05-19T11:15:52.250Z,99.68
2023-05-19T11:18:23.195Z,100.00
2023-05-19T11:21:02.792Z,100.00
2023-05-19T11:23:38.502Z,100.00
2023-05-19T11:26:10.260Z,99.77
2023-05-19T11:28:38.775Z,98.05
2023-05-19T11:31:13.255Z,97.97
2023-05-19T11:33:42.910Z,99.59
2023-05-19T11:36:16.333Z,100.00
2023-05-19T11:38:45.157Z,99.95
2023-05-19T11:41:16.875Z,99.21
2023-05-19T11:43:47.504Z,98.91
2023-05-19T11:46:14.921Z,99.26
2023-05-19T11:48:42.239Z,98.88
2023-05-19T11:51:12.120Z,98.73
2023-05-19T11:53:39.914Z,97.46
2023-05-19T11:57:17.421Z,97.99
2023-05-19T11:59:56.832Z,98.36
2023-05-19T12:02:47.922Z,97.39
2023-05-19T12:05:35.479Z,97.79
2023-05-19T12:18:11.842Z,98.04
2023-05-19T12:22:57.459Z,97.59
2023-05-19T12:25:29.092Z,97.56
2023-05-19T12:28:34.417Z,96.81
2023-05-19T12:31:36.285Z,96.25
2023-05-19T12:34:42.511Z,95.97
2023-05-19T12:37:22.467Z,95.82
2023-05-19T12:45:43.331Z,96.59
2023-05-19T12:48:59.833Z,95.64
2023-05-19T12:55:11.925Z,95.79
2023-05-19T12:58:18.041Z,95.45
2023-05-19T13:01:24.324Z,96.14
2023-05-19T13:04:20.864Z,95.99
2023-05-19T13:06:56.877Z,95.54
2023-05-19T13:09:23.944Z,95.51
2023-05-19T13:11:51.856Z,95.68
2023-05-19T13:14:19.321Z,96.45
2023-05-19T13:16:47.138Z,96.76
2023-05-19T13:19:28.207Z,96.90
2023-05-19T13:22:33.788Z,96.54
2023-05-19T13:26:36.070Z,95.00
2023-05-19T13:28:23.866Z,95.38
2023-05-19T13:30:51.807Z,95.88
2023-05-19T13:33:18.996Z,96.84
2023-05-19T13:35:56.268Z,96.50
2023-05-19T13:38:23.432Z,96.53
2023-05-19T13:40:50.649Z,96.43
2023-05-19T13:43:37.892Z,96.50
2023-05-19T13:46:06.196Z,96.78
2023-05-19T13:48:40.907Z,96.85
2023-05-19T13:52:03.171Z,96.95
2023-05-19T13:58:29.300Z,96.71
2023-05-19T14:00:02.532Z,96.73
2023-05-19T14:01:17.058Z,95.80
2023-05-19T14:04:10.929Z,95.85
2023-05-19T14:07:02.235Z,95.65
2023-05-19T14:09:30.012Z,95.96
2023-05-19T14:11:57.242Z,96.24
2023-05-19T14:14:24.924Z,97.64
2023-05-19T14:16:52.287Z,97.32
2023-05-19T14:19:21.540Z,97.02
2023-05-19T14:21:50.332Z,97.06
2023-05-19T14:24:17.479Z,97.59
2023-05-19T14:26:44.651Z,97.23
2023-05-19T14:29:12.292Z,96.73
2023-05-19T14:31:39.593Z,96.46
2023-05-19T14:34:06.833Z,96.57
2023-05-19T14:36:34.884Z,97.19
2023-05-19T14:39:02.538Z,97.38
2023-05-19T14:41:29.685Z,97.43
2023-05-19T14:43:56.834Z,97.28
2023-05-19T14:46:23.922Z,97.78
2023-05-19T14:48:51.167Z,97.27
2023-05-19T14:51:18.204Z,97.59
2023-05-19T14:53:45.358Z,97.63
2023-05-19T14:56:12.457Z,97.63
2023-05-19T14:58:40.464Z,97.85
2023-05-19T15:01:08.233Z,97.89
2023-05-19T15:03:35.526Z,97.21
2023-05-19T15:06:03.033Z,96.78
2023-05-19T15:08:30.495Z,96.60
2023-05-19T15:10:57.773Z,97.02
2023-05-19T15:13:26.479Z,97.53
2023-05-19T15:16:08.456Z,97.54
2023-05-19T15:18:42.773Z,97.45
2023-05-19T15:21:10.232Z,97.64
2023-05-19T15:23:37.490Z,97.62
2023-05-19T15:26:05.136Z,97.72
2023-05-19T15:28:33.255Z,97.88
2023-05-19T15:31:00.681Z,98.03
2023-05-19T15:33:28.121Z,98.13
2023-05-19T15:35:56.793Z,98.19
2023-05-19T15:38:23.952Z,98.70
2023-05-19T15:40:51.078Z,98.76
2023-05-19T15:43:19.596Z,98.66
2023-05-19T15:45:47.658Z,98.64
2023-05-19T15:48:14.792Z,98.08
2023-05-19T15:50:42.059Z,97.95
2023-05-19T15:53:10.251Z,98.21
2023-05-19T15:55:37.537Z,98.51
2023-05-19T15:58:04.721Z,98.72
2023-05-19T16:00:32.625Z,98.59
2023-05-19T16:03:00.353Z,98.59
2023-05-19T16:05:27.634Z,98.65
2023-05-19T16:07:54.981Z,98.89
2023-05-19T16:10:22.326Z,98.66
2023-05-19T16:12:49.652Z,98.78
2023-05-19T16:15:16.990Z,98.85
2023-05-19T16:17:44.232Z,99.20
2023-05-19T16:20:11.990Z,99.18
2023-05-19T16:22:39.318Z,99.26
2023-05-19T16:25:07.453Z,98.98
2023-05-19T16:27:34.643Z,99.09
2023-05-19T16:30:02.808Z,99.28
2023-05-19T16:32:30.224Z,99.31
2023-05-19T16:34:57.534Z,99.39
2023-05-19T16:37:24.623Z,99.63
2023-05-19T16:39:51.710Z,99.75
2023-05-19T16:42:18.858Z,99.88
2023-05-19T16:44:46.356Z,100.00
2023-05-19T16:47:13.545Z,99.88
2023-05-19T16:49:40.650Z,99.98
2023-05-19T16:52:07.877Z,100.00
2023-05-19T16:54:35.105Z,100.00
2023-05-19T16:57:02.653Z,100.00
2023-05-19T16:59:29.722Z,100.00
2023-05-19T17:01:56.824Z,100.00
2023-05-19T17:04:24.266Z,100.00
2023-05-19T17:06:51.379Z,100.00
2023-05-19T17:09:24.582Z,100.00
2023-05-19T17:11:55.609Z,100.00
2023-05-19T17:14:44.265Z,100.00
2023-05-19T17:20:52.467Z,100.00
2023-05-19T17:24:35.976Z,99.97
2023-05-19T17:30:47.211Z,100.00
2023-05-19T17:33:28.270Z,99.88
2023-05-19T17:36:08.188Z,99.92
2023-05-19T17:38:39.927Z,99.98
2023-05-19T17:41:13.656Z,100.00
2023-05-19T17:43:41.661Z,100.00
2023-05-19T17:46:29.727Z,99.99
2023-05-19T17:48:56.765Z,99.97
2023-05-19T17:51:23.978Z,99.99
2023-05-19T17:53:51.252Z,100.00
2023-05-19T17:56:22.063Z,100.00
2023-05-19T17:58:49.563Z,100.00
2023-05-19T18:01:17.630Z,100.00
2023-05-19T18:03:48.957Z,100.00
2023-05-19T18:06:17.675Z,100.00
2023-05-19T18:08:51.021Z,100.00
2023-05-19T18:11:21.035Z,100.00
2023-05-19T18:13:48.270Z,100.00
2023-05-19T18:16:15.454Z,100.00
2023-05-19T18:18:44.218Z,100.00
2023-05-19T18:21:13.928Z,100.00
2023-05-19T18:27:27.559Z,100.00
2023-05-19T18:30:07.484Z,100.00
2023-05-19T18:33:31.684Z,100.00
2023-05-19T18:36:36.848Z,100.00
2023-05-19T18:39:57.631Z,100.00
2023-05-19T18:42:41.559Z,100.00
2023-05-19T18:48:30.034Z,100.00
2023-05-19T18:55:00.708Z,100.00
2023-05-19T18:57:27.949Z,100.00
2023-05-19T19:00:47.663Z,100.00
2023-05-19T19:04:07.270Z,100.00
2023-05-19T19:07:16.067Z,100.00
2023-05-19T19:10:20.437Z,100.00
2023-05-19T19:13:16.128Z,100.00
2023-05-19T19:19:30.080Z,100.00
2023-05-19T19:23:15.493Z,100.00
2023-05-19T19:28:54.143Z,100.00
2023-05-19T19:31:56.344Z,100.00
2023-05-19T19:34:23.744Z,100.00
2023-05-19T19:37:05.216Z,100.00
2023-05-19T19:39:32.756Z,100.00
2023-05-19T19:42:02.583Z,100.00
2023-05-19T19:44:29.768Z,100.00
2023-05-19T19:46:56.932Z,100.00
2023-05-19T19:49:26.950Z,100.00
2023-05-19T19:51:57.226Z,100.00
2023-05-19T19:54:24.521Z,100.00
2023-05-19T19:56:58.118Z,100.00
2023-05-19T19:59:30.552Z,100.00
2023-05-19T20:02:32.591Z,100.00
2023-05-19T20:05:04.061Z,100.00
2023-05-19T20:07:42.042Z,100.00
2023-05-19T20:10:50.838Z,100.00
2023-05-19T20:13:39.918Z,100.00
2023-05-19T20:16:27.442Z,100.00
2023-05-19T20:19:09.394Z,100.00
2023-05-19T20:22:00.224Z,100.00
2023-05-19T20:24:55.088Z,100.00
2023-05-19T20:27:49.258Z,100.00
2023-05-19T20:30:23.094Z,100.00
2023-05-19T20:33:28.449Z,100.00
2023-05-19T20:40:09.422Z,100.00
2023-05-19T20:42:27.449Z,100.00
2023-05-19T20:45:14.789Z,100.00
2023-05-19T20:48:06.629Z,100.00
2023-05-19T20:50:50.047Z,100.00
2023-05-19T20:54:47.017Z,100.00
2023-05-19T21:03:26.388Z,100.00
2023-05-19T21:06:00.478Z,100.00
2023-05-19T21:09:19.269Z,100.00
2023-05-19T21:12:15.901Z,100.00
2023-05-19T21:14:43.069Z,100.00
2023-05-19T21:17:10.253Z,100.00
2023-05-19T21:19:39.398Z,100.00
2023-05-19T21:22:06.748Z,100.00
2023-05-19T21:24:34.085Z,100.00
2023-05-19T21:27:01.559Z,100.00
2023-05-19T21:29:28.613Z,100.00
2023-05-19T21:31:56.131Z,100.00
2023-05-19T21:34:23.362Z,100.00
2023-05-19T21:36:50.347Z,100.00
2023-05-19T21:39:17.538Z,100.00
2023-05-19T21:41:44.558Z,100.00
2023-05-19T21:44:11.533Z,100.00
2023-05-19T21:46:39.404Z,100.00
2023-05-19T21:49:08.525Z,100.00
2023-05-19T21:51:36.367Z,100.00
2023-05-19T21:55:30.820Z,100.00
2023-05-19T21:57:23.812Z,100.00
2023-05-19T21:59:50.800Z,100.00
2023-05-19T22:02:17.813Z,100.00
2023-05-19T22:04:45.276Z,100.00
2023-05-19T22:07:12.368Z,100.00
2023-05-19T22:09:39.318Z,100.00
2023-05-19T22:12:06.999Z,100.00
2023-05-19T22:14:34.149Z,100.00
2023-05-19T22:17:01.181Z,100.00
2023-05-19T22:19:28.263Z,100.00
2023-05-19T22:22:01.849Z,100.00
2023-05-19T22:24:33.108Z,100.00
2023-05-19T22:27:00.211Z,100.00
2023-05-19T22:29:27.219Z,100.00
2023-05-19T22:31:54.280Z,100.00
2023-05-19T22:34:21.256Z,100.00
2023-05-19T22:36:48.363Z,100.00
2023-05-19T22:39:15.515Z,100.00
2023-05-19T22:41:42.631Z,100.00
2023-05-19T22:44:11.059Z,100.00
2023-05-19T22:46:38.116Z,100.00
2023-05-19T22:49:05.398Z,100.00
2023-05-19T22:51:33.234Z,100.00
2023-05-19T22:54:00.334Z,100.00
2023-05-19T22:56:27.403Z,100.00
2023-05-19T22:58:54.425Z,100.00
2023-05-19T23:01:21.458Z,100.00
2023-05-19T23:03:48.498Z,100.00
2023-05-19T23:06:15.802Z,100.00
2023-05-19T23:08:44.874Z,100.00
2023-05-19T23:11:12.805Z,100.00
2023-05-19T23:13:39.860Z,100.00
2023-05-19T23:16:07.301Z,100.00
2023-05-19T23:18:34.265Z,100.00
2023-05-19T23:21:01.294Z,100.00
2023-05-19T23:23:29.301Z,100.00
2023-05-19T23:25:56.404Z,100.00
2023-05-19T23:28:23.448Z,100.00
2023-05-19T23:30:52.956Z,100.00
2023-05-19T23:33:20.217Z,100.00
2023-05-19T23:35:48.244Z,100.00
2023-05-19T23:38:15.886Z,100.00
2023-05-19T23:40:43.629Z,100.00
2023-05-19T23:43:10.755Z,100.00
2023-05-19T23:45:37.695Z,100.00
2023-05-19T23:48:05.161Z,100.00
2023-05-19T23:50:32.215Z,100.00
2023-05-19T23:53:00.303Z,100.00
2023-05-19T23:55:27.302Z,100.00
2023-05-19T23:57:54.346Z,100.00
